Wetterdaten: Woche 28.01.08 - 03.02.08 (KW5)
Datum Zeit Temperatur Luftfeuchte Luftdruck Niederschlag Wind Richtung Sonnenschein Solar Taupunkt Windchill Windben
28.01.2008 00:00 -0.5 C 89 % 1036.6 hPa 0.0 l/m 2.0 km/h (1 Bft) O-SO 0.00 h 0 W/m -2.1 C -0.7 C 3.2 km/h (1 Bft)
28.01.2008 01:00 -0.7 C 90 % 1036.4 hPa 0.0 l/m 1.3 km/h (1 Bft) O-SO 0.00 h 0 W/m -2.1 C -0.7 C 2.5 km/h (1 Bft)
28.01.2008 02:00 -1.0 C 91 % 1036.6 hPa 0.0 l/m 0.2 km/h (0 Bft) O-SO 0.00 h 0 W/m -2.4 C -1.0 C 0.5 km/h (0 Bft)
28.01.2008 03:00 -1.7 C 92 % 1036.8 hPa 0.0 l/m 0.1 km/h (0 Bft) O-SO 0.00 h 0 W/m -2.9 C -1.7 C 0.3 km/h (0 Bft)
28.01.2008 04:00 -2.2 C 93 % 1036.8 hPa 0.0 l/m 0.9 km/h (0 Bft) O-SO 0.00 h 0 W/m -3.1 C -2.2 C 1.6 km/h (1 Bft)
28.01.2008 05:00 -2.2 C 94 % 1036.9 hPa 0.0 l/m 0.1 km/h (0 Bft) O-SO 0.00 h 0 W/m -3.1 C -2.2 C 0.3 km/h (0 Bft)
28.01.2008 06:00 -2.7 C 94 % 1036.8 hPa 0.0 l/m 0.9 km/h (0 Bft) O-SO 0.00 h 0 W/m -3.5 C -2.7 C 1.6 km/h (1 Bft)
28.01.2008 07:00 -2.7 C 95 % 1036.6 hPa 0.0 l/m 0.3 km/h (0 Bft) O-SO 0.00 h 5 W/m -3.4 C -2.7 C 0.6 km/h (0 Bft)
28.01.2008 08:00 -2.8 C 95 % 1036.2 hPa 0.0 l/m 0.0 km/h (0 Bft) N 0.00 h 25 W/m -3.5 C -2.8 C 0.0 km/h (0 Bft)
28.01.2008 09:00 -2.2 C 96 % 1036.0 hPa 0.0 l/m 0.1 km/h (0 Bft) O-SO 0.03 h 76 W/m -2.8 C -2.2 C 0.7 km/h (0 Bft)
28.01.2008 10:00 -1.1 C 93 % 1036.1 hPa 0.0 l/m 0.2 km/h (0 Bft) O-SO 0.33 h 124 W/m -2.1 C -1.1 C 0.4 km/h (0 Bft)
28.01.2008 11:00 1.7 C 79 % 1035.7 hPa 0.0 l/m 1.9 km/h (1 Bft) N-NW 0.88 h 310 W/m -1.5 C 1.5 C 3.5 km/h (1 Bft)
28.01.2008 12:00 4.7 C 63 % 1034.7 hPa 0.0 l/m 2.0 km/h (1 Bft) N-NW 1.00 h 370 W/m -1.8 C 4.7 C 3.9 km/h (1 Bft)
28.01.2008 13:00 7.2 C 51 % 1033.4 hPa 0.0 l/m 2.1 km/h (1 Bft) N-NW 1.00 h 360 W/m -2.4 C 7.1 C 3.9 km/h (1 Bft)
28.01.2008 14:00 9.0 C 43 % 1032.4 hPa 0.0 l/m 2.5 km/h (1 Bft) NW 1.00 h 293 W/m -2.8 C 9.0 C 4.2 km/h (1 Bft)
28.01.2008 15:00 10.0 C 40 % 1031.9 hPa 0.0 l/m 1.5 km/h (1 Bft) NW 1.00 h 188 W/m -3.0 C 9.9 C 3.1 km/h (1 Bft)
28.01.2008 16:00 9.2 C 42 % 1031.7 hPa 0.0 l/m 0.0 km/h (0 Bft) N 0.63 h 71 W/m -3.2 C 9.2 C 0.3 km/h (0 Bft)
28.01.2008 17:00 6.7 C 49 % 1031.9 hPa 0.0 l/m 1.0 km/h (0 Bft) NW 0.05 h 10 W/m -3.5 C 6.7 C 1.7 km/h (1 Bft)
28.01.2008 18:00 3.8 C 64 % 1032.4 hPa 0.0 l/m 2.3 km/h (1 Bft) NO 0.00 h 0 W/m -2.4 C 3.6 C 3.3 km/h (1 Bft)
28.01.2008 19:00 2.4 C 68 % 1032.6 hPa 0.0 l/m 1.0 km/h (0 Bft) O-NO 0.00 h 0 W/m -2.9 C 2.4 C 2.0 km/h (1 Bft)
28.01.2008 20:00 1.3 C 72 % 1032.9 hPa 0.0 l/m 0.3 km/h (0 Bft) O-NO 0.00 h 0 W/m -3.1 C 1.3 C 0.8 km/h (0 Bft)
28.01.2008 21:00 0.5 C 76 % 1032.9 hPa 0.0 l/m 1.2 km/h (1 Bft) O-NO 0.00 h 0 W/m -3.2 C 0.4 C 1.8 km/h (1 Bft)
28.01.2008 22:00 -0.1 C 80 % 1032.8 hPa 0.0 l/m 1.5 km/h (1 Bft) O-NO 0.00 h 0 W/m -3.1 C -0.2 C 2.4 km/h (1 Bft)
28.01.2008 23:00 -0.7 C 83 % 1032.2 hPa 0.0 l/m 0.4 km/h (0 Bft) O-NO 0.00 h 0 W/m -3.2 C -0.7 C 1.1 km/h (1 Bft)
29.01.2008 00:00 -0.9 C 85 % 1031.9 hPa 0.0 l/m 1.4 km/h (1 Bft) O-NO 0.00 h 0 W/m -3.0 C -1.1 C 1.9 km/h (1 Bft)
29.01.2008 01:00 -1.3 C 88 % 1031.6 hPa 0.0 l/m 0.8 km/h (0 Bft) O-NO 0.00 h 0 W/m -3.1 C -1.3 C 1.4 km/h (1 Bft)
29.01.2008 02:00 -1.4 C 87 % 1031.1 hPa 0.0 l/m 0.9 km/h (0 Bft) O-NO 0.00 h 0 W/m -3.2 C -1.4 C 1.3 km/h (1 Bft)
29.01.2008 03:00 -1.9 C 90 % 1031.1 hPa 0.0 l/m 1.2 km/h (1 Bft) O-NO 0.00 h 0 W/m -3.3 C -1.9 C 1.9 km/h (1 Bft)
29.01.2008 04:00 -2.0 C 91 % 1030.8 hPa 0.0 l/m 0.0 km/h (0 Bft) N 0.00 h 0 W/m -3.3 C -2.0 C 0.1 km/h (0 Bft)
29.01.2008 05:00 -2.4 C 91 % 1030.9 hPa 0.0 l/m 0.0 km/h (0 Bft) O-NO 0.00 h 0 W/m -3.7 C -2.4 C 0.1 km/h (0 Bft)
29.01.2008 06:00 -2.6 C 91 % 1030.9 hPa 0.0 l/m 0.3 km/h (0 Bft) O-NO 0.00 h 0 W/m -3.8 C -2.6 C 0.9 km/h (0 Bft)
29.01.2008 07:00 -2.7 C 92 % 1031.0 hPa 0.0 l/m 0.2 km/h (0 Bft) O-NO 0.00 h 5 W/m -3.8 C -2.7 C 0.5 km/h (0 Bft)
29.01.2008 08:00 -2.7 C 93 % 1031.3 hPa 0.0 l/m 0.7 km/h (0 Bft) O-NO 0.05 h 25 W/m -3.6 C -2.7 C 1.0 km/h (0 Bft)
29.01.2008 09:00 -1.7 C 93 % 1031.2 hPa 0.0 l/m 0.0 km/h (0 Bft) N 0.62 h 121 W/m -2.7 C -1.7 C 0.0 km/h (0 Bft)
29.01.2008 10:00 0.1 C 85 % 1030.9 hPa 0.0 l/m 0.0 km/h (0 Bft) O-NO 0.50 h 166 W/m -2.2 C 0.1 C 0.5 km/h (0 Bft)
29.01.2008 11:00 1.9 C 78 % 1030.5 hPa 0.0 l/m 0.2 km/h (0 Bft) O-NO 0.90 h 292 W/m -1.5 C 1.9 C 0.9 km/h (0 Bft)
29.01.2008 12:00 4.5 C 70 % 1029.5 hPa 0.0 l/m 1.8 km/h (1 Bft) O-NO 1.00 h 363 W/m -0.6 C 4.4 C 3.4 km/h (1 Bft)
29.01.2008 13:00 6.7 C 62 % 1028.2 hPa 0.0 l/m 2.0 km/h (1 Bft) N-NW 1.00 h 349 W/m -0.2 C 6.7 C 3.9 km/h (1 Bft)
29.01.2008 14:00 8.0 C 54 % 1027.1 hPa 0.0 l/m 1.9 km/h (1 Bft) O-SO 1.00 h 267 W/m -0.7 C 8.0 C 3.9 km/h (1 Bft)
29.01.2008 15:00 8.3 C 55 % 1026.5 hPa 0.0 l/m 2.1 km/h (1 Bft) O-SO 0.73 h 190 W/m -0.3 C 8.3 C 4.5 km/h (1 Bft)
29.01.2008 16:00 6.9 C 61 % 1026.1 hPa 0.0 l/m 5.6 km/h (1 Bft) O-SO 0.02 h 49 W/m -0.0 C 6.1 C 7.3 km/h (2 Bft)
29.01.2008 17:00 5.8 C 66 % 1026.0 hPa 0.0 l/m 3.1 km/h (1 Bft) O-SO 0.05 h 10 W/m -0.0 C 5.5 C 4.7 km/h (1 Bft)
29.01.2008 18:00 4.8 C 71 % 1026.2 hPa 0.0 l/m 0.8 km/h (0 Bft) O-SO 0.00 h 0 W/m -0.0 C 4.8 C 1.9 km/h (1 Bft)
29.01.2008 19:00 2.8 C 80 % 1026.4 hPa 0.0 l/m 0.9 km/h (0 Bft) O-SO 0.00 h 0 W/m -0.3 C 2.8 C 2.0 km/h (1 Bft)
29.01.2008 20:00 2.0 C 84 % 1026.3 hPa 0.0 l/m 0.9 km/h (0 Bft) O 0.00 h 0 W/m -0.5 C 2.0 C 1.8 km/h (1 Bft)
29.01.2008 21:00 1.6 C 86 % 1026.0 hPa 0.0 l/m 0.3 km/h (0 Bft) O 0.00 h 0 W/m -0.5 C 1.6 C 0.9 km/h (0 Bft)
29.01.2008 22:00 1.0 C 89 % 1025.7 hPa 0.0 l/m 0.7 km/h (0 Bft) O 0.00 h 0 W/m -0.6 C 1.0 C 1.5 km/h (1 Bft)
29.01.2008 23:00 0.7 C 90 % 1025.4 hPa 0.0 l/m 0.4 km/h (0 Bft) O 0.00 h 0 W/m -0.7 C 0.7 C 1.1 km/h (0 Bft)
30.01.2008 00:00 0.6 C 91 % 1025.0 hPa 0.0 l/m 0.2 km/h (0 Bft) O 0.00 h 0 W/m -0.7 C 0.6 C 0.8 km/h (0 Bft)
30.01.2008 01:00 0.3 C 93 % 1024.9 hPa 0.0 l/m 1.9 km/h (1 Bft) O 0.00 h 0 W/m -0.6 C 0.3 C 2.7 km/h (1 Bft)
30.01.2008 02:00 -0.1 C 93 % 1024.7 hPa 0.0 l/m 1.5 km/h (1 Bft) O 0.00 h 0 W/m -1.0 C -0.2 C 2.2 km/h (1 Bft)
30.01.2008 03:00 -0.2 C 94 % 1024.6 hPa 0.0 l/m 1.0 km/h (0 Bft) O 0.00 h 0 W/m -1.1 C -0.3 C 1.6 km/h (1 Bft)
30.01.2008 04:00 -0.6 C 95 % 1024.2 hPa 0.0 l/m 0.8 km/h (0 Bft) O 0.00 h 0 W/m -1.3 C -0.6 C 2.0 km/h (1 Bft)
30.01.2008 05:00 0.0 C 94 % 1024.2 hPa 0.0 l/m 2.1 km/h (1 Bft) O 0.00 h 0 W/m -0.8 C 0.0 C 3.4 km/h (1 Bft)
30.01.2008 06:00 0.4 C 92 % 1024.8 hPa 0.0 l/m 2.4 km/h (1 Bft) O 0.00 h 0 W/m -0.8 C 0.1 C 3.4 km/h (1 Bft)
30.01.2008 07:00 1.6 C 89 % 1025.0 hPa 0.0 l/m 3.4 km/h (1 Bft) W 0.00 h 0 W/m -0.1 C 1.0 C 6.1 km/h (2 Bft)
30.01.2008 08:00 3.6 C 80 % 1025.5 hPa 0.0 l/m 7.5 km/h (2 Bft) W-NW 0.00 h 30 W/m 0.4 C 1.8 C 11.4 km/h (2 Bft)
30.01.2008 09:00 3.8 C 78 % 1025.8 hPa 0.0 l/m 6.0 km/h (2 Bft) W 0.00 h 43 W/m 0.4 C 2.6 C 8.9 km/h (2 Bft)
30.01.2008 10:00 4.1 C 77 % 1026.0 hPa 0.0 l/m 2.8 km/h (1 Bft) W-NW 0.00 h 63 W/m 0.4 C 3.8 C 4.6 km/h (1 Bft)
30.01.2008 11:00 4.8 C 74 % 1026.0 hPa 0.0 l/m 4.1 km/h (1 Bft) W 0.00 h 95 W/m 0.5 C 4.2 C 6.3 km/h (2 Bft)
30.01.2008 12:00 5.5 C 71 % 1025.8 hPa 0.0 l/m 4.1 km/h (1 Bft) W 0.33 h 179 W/m 0.7 C 5.0 C 7.0 km/h (2 Bft)
30.01.2008 13:00 5.8 C 68 % 1025.2 hPa 0.0 l/m 8.7 km/h (2 Bft) W 0.03 h 129 W/m 0.5 C 4.0 C 13.4 km/h (3 Bft)
30.01.2008 14:00 5.0 C 71 % 1025.2 hPa 0.0 l/m 7.8 km/h (2 Bft) W-SW 0.00 h 88 W/m 0.3 C 3.3 C 12.0 km/h (2 Bft)
30.01.2008 15:00 4.6 C 74 % 1025.3 hPa 0.0 l/m 8.4 km/h (2 Bft) W 0.00 h 56 W/m 0.4 C 2.7 C 12.9 km/h (3 Bft)
30.01.2008 16:00 4.0 C 79 % 1025.7 hPa 0.0 l/m 9.0 km/h (2 Bft) W 0.00 h 16 W/m 0.6 C 1.8 C 13.7 km/h (3 Bft)
30.01.2008 17:00 3.5 C 82 % 1026.1 hPa 0.0 l/m 11.0 km/h (2 Bft) W 0.00 h 0 W/m 0.7 C 0.7 C 16.5 km/h (3 Bft)
30.01.2008 18:00 3.3 C 81 % 1026.6 hPa 0.0 l/m 12.1 km/h (2 Bft) W 0.00 h 0 W/m 0.4 C 0.3 C 18.8 km/h (3 Bft)
30.01.2008 19:00 3.1 C 80 % 1026.9 hPa 0.0 l/m 13.3 km/h (3 Bft) W-NW 0.00 h 0 W/m -0.0 C -0.2 C 20.4 km/h (4 Bft)
30.01.2008 20:00 2.9 C 78 % 1027.4 hPa 0.0 l/m 12.3 km/h (3 Bft) W 0.00 h 0 W/m -0.6 C -0.3 C 18.0 km/h (3 Bft)
30.01.2008 21:00 2.8 C 76 % 1027.8 hPa 0.0 l/m 15.2 km/h (3 Bft) W 0.00 h 0 W/m -1.0 C -1.0 C 22.3 km/h (4 Bft)
30.01.2008 22:00 2.4 C 81 % 1028.4 hPa 0.0 l/m 11.5 km/h (2 Bft) W-NW 0.00 h 0 W/m -0.6 C -0.7 C 17.7 km/h (3 Bft)
30.01.2008 23:00 2.2 C 82 % 1028.8 hPa 0.0 l/m 7.2 km/h (2 Bft) W-NW 0.00 h 0 W/m -0.5 C 0.3 C 11.6 km/h (2 Bft)
31.01.2008 00:00 1.6 C 87 % 1028.9 hPa 0.0 l/m 2.8 km/h (1 Bft) W-NW 0.00 h 0 W/m -0.3 C 1.3 C 4.8 km/h (1 Bft)
31.01.2008 01:00 1.2 C 90 % 1028.5 hPa 0.0 l/m 4.5 km/h (1 Bft) W 0.00 h 0 W/m -0.3 C 0.2 C 7.1 km/h (2 Bft)
31.01.2008 02:00 0.8 C 90 % 1028.4 hPa 0.0 l/m 2.6 km/h (1 Bft) W-NW 0.00 h 0 W/m -0.6 C 0.5 C 4.5 km/h (1 Bft)
31.01.2008 03:00 0.6 C 90 % 1028.1 hPa 0.0 l/m 0.6 km/h (0 Bft) SW 0.00 h 0 W/m -0.9 C 0.6 C 1.4 km/h (1 Bft)
31.01.2008 04:00 0.5 C 89 % 1028.0 hPa 0.0 l/m 0.7 km/h (0 Bft) W 0.00 h 0 W/m -1.0 C 0.5 C 1.5 km/h (1 Bft)
31.01.2008 05:00 0.8 C 88 % 1028.0 hPa 0.0 l/m 4.1 km/h (1 Bft) W-SW 0.00 h 0 W/m -0.9 C 0.0 C 7.0 km/h (2 Bft)
31.01.2008 06:00 0.9 C 87 % 1028.0 hPa 0.0 l/m 3.5 km/h (1 Bft) W 0.00 h 0 W/m -0.9 C 0.2 C 5.9 km/h (2 Bft)
31.01.2008 07:00 1.0 C 87 % 1028.2 hPa 0.0 l/m 3.0 km/h (1 Bft) W 0.00 h 0 W/m -0.9 C 0.5 C 5.2 km/h (1 Bft)
31.01.2008 08:00 1.0 C 87 % 1028.1 hPa 0.0 l/m 0.7 km/h (0 Bft) W 0.00 h 17 W/m -1.0 C 1.0 C 1.6 km/h (1 Bft)
31.01.2008 09:00 1.4 C 85 % 1027.3 hPa 0.0 l/m 0.4 km/h (0 Bft) W 0.00 h 55 W/m -0.8 C 1.4 C 1.2 km/h (1 Bft)
31.01.2008 10:00 1.8 C 83 % 1026.5 hPa 0.0 l/m 1.5 km/h (1 Bft) W 0.00 h 112 W/m -0.8 C 1.7 C 2.9 km/h (1 Bft)
31.01.2008 11:00 2.3 C 81 % 1025.8 hPa 0.0 l/m 1.1 km/h (1 Bft) W-NW 0.00 h 107 W/m -0.6 C 2.3 C 2.3 km/h (1 Bft)
31.01.2008 12:00 2.8 C 78 % 1024.9 hPa 0.0 l/m 1.5 km/h (1 Bft) W-NW 0.00 h 142 W/m -0.6 C 2.8 C 2.8 km/h (1 Bft)
31.01.2008 13:00 3.0 C 79 % 1023.5 hPa 0.0 l/m 5.2 km/h (1 Bft) W-NW 0.00 h 124 W/m -0.2 C 1.7 C 8.1 km/h (2 Bft)
31.01.2008 14:00 2.6 C 82 % 1022.7 hPa 0.0 l/m 8.5 km/h (2 Bft) W 0.00 h 109 W/m -0.2 C 0.2 C 13.0 km/h (3 Bft)
31.01.2008 15:00 2.5 C 82 % 1022.3 hPa 0.0 l/m 6.4 km/h (2 Bft) W 0.00 h 77 W/m -0.2 C 0.8 C 9.7 km/h (2 Bft)
31.01.2008 16:00 2.2 C 83 % 1021.8 hPa 0.0 l/m 4.8 km/h (1 Bft) W 0.00 h 33 W/m -0.4 C 1.2 C 7.9 km/h (2 Bft)
31.01.2008 17:00 1.7 C 83 % 1021.4 hPa 0.0 l/m 3.7 km/h (1 Bft) W 0.25 h 16 W/m -0.8 C 1.2 C 5.9 km/h (2 Bft)
31.01.2008 18:00 1.7 C 82 % 1021.0 hPa 0.0 l/m 8.5 km/h (2 Bft) W 0.00 h 0 W/m -1.0 C -0.7 C 12.7 km/h (3 Bft)
31.01.2008 19:00 1.4 C 81 % 1020.3 hPa 0.0 l/m 2.8 km/h (1 Bft) W 0.00 h 0 W/m -1.4 C 0.9 C 5.1 km/h (1 Bft)
31.01.2008 20:00 1.0 C 83 % 1019.3 hPa 0.0 l/m 2.4 km/h (1 Bft) W 0.00 h 0 W/m -1.6 C 0.5 C 4.1 km/h (1 Bft)
31.01.2008 21:00 0.7 C 85 % 1018.7 hPa 0.0 l/m 2.5 km/h (1 Bft) S-SO 0.00 h 0 W/m -1.5 C 0.6 C 4.5 km/h (1 Bft)
31.01.2008 22:00 0.6 C 87 % 1018.0 hPa 0.0 l/m 4.1 km/h (1 Bft) S-SO 0.00 h 0 W/m -1.3 C -0.3 C 7.6 km/h (2 Bft)
31.01.2008 23:00 0.4 C 88 % 1017.4 hPa 0.0 l/m 1.9 km/h (1 Bft) S 0.00 h 0 W/m -1.3 C 0.4 C 3.9 km/h (1 Bft)
01.02.2008 00:00 0.4 C 89 % 1016.7 hPa 0.0 l/m 3.1 km/h (1 Bft) S-SO 0.00 h 0 W/m -1.2 C 0.1 C 4.8 km/h (1 Bft)
01.02.2008 01:00 1.0 C 88 % 1015.5 hPa 0.0 l/m 4.0 km/h (1 Bft) S 0.00 h 0 W/m -0.7 C 0.3 C 8.0 km/h (2 Bft)
01.02.2008 02:00 1.8 C 81 % 1014.2 hPa 0.0 l/m 4.5 km/h (1 Bft) S 0.00 h 0 W/m -1.1 C 1.0 C 9.1 km/h (2 Bft)
01.02.2008 03:00 2.2 C 76 % 1013.3 hPa 0.0 l/m 1.8 km/h (1 Bft) W-SW 0.00 h 0 W/m -1.6 C 2.0 C 3.7 km/h (1 Bft)
01.02.2008 04:00 2.6 C 71 % 1011.9 hPa 0.0 l/m 4.2 km/h (1 Bft) SW 0.00 h 0 W/m -2.2 C 1.8 C 7.7 km/h (2 Bft)
01.02.2008 05:00 2.7 C 71 % 1010.9 hPa 0.0 l/m 5.3 km/h (1 Bft) N 0.00 h 0 W/m -2.1 C 1.5 C 9.5 km/h (2 Bft)
01.02.2008 06:00 7.3 C 40 % 1010.3 hPa 0.0 l/m 9.1 km/h (2 Bft) SW 0.00 h 0 W/m -5.3 C 5.7 C 16.2 km/h (3 Bft)
01.02.2008 07:00 7.4 C 51 % 1010.2 hPa 0.4 l/m 13.2 km/h (3 Bft) W 0.00 h 0 W/m -2.1 C 5.3 C 21.0 km/h (4 Bft)
01.02.2008 08:00 6.1 C 75 % 1010.3 hPa 0.4 l/m 3.3 km/h (1 Bft) W-SW 0.00 h 13 W/m 2.0 C 5.7 C 6.3 km/h (2 Bft)
01.02.2008 09:00 5.4 C 82 % 1010.5 hPa 0.4 l/m 5.5 km/h (1 Bft) S 0.00 h 29 W/m 2.5 C 4.4 C 11.2 km/h (2 Bft)
01.02.2008 10:00 5.5 C 79 % 1010.2 hPa 0.0 l/m 10.0 km/h (2 Bft) S 0.00 h 53 W/m 2.1 C 3.3 C 19.6 km/h (3 Bft)
01.02.2008 11:00 6.9 C 74 % 1009.5 hPa 0.0 l/m 9.1 km/h (2 Bft) SW 0.03 h 129 W/m 2.6 C 5.2 C 17.9 km/h (3 Bft)
01.02.2008 12:00 8.6 C 68 % 1008.1 hPa 0.0 l/m 12.3 km/h (3 Bft) SW 0.53 h 283 W/m 2.9 C 6.6 C 21.9 km/h (4 Bft)
01.02.2008 13:00 10.2 C 61 % 1006.7 hPa 0.0 l/m 12.9 km/h (3 Bft) SW 0.92 h 320 W/m 2.9 C 9.8 C 22.6 km/h (4 Bft)
01.02.2008 14:00 10.7 C 57 % 1006.1 hPa 0.0 l/m 17.6 km/h (3 Bft) W-SW 0.00 h 72 W/m 2.6 C 10.7 C 27.5 km/h (4 Bft)
01.02.2008 15:00 11.6 C 54 % 1005.3 hPa 0.0 l/m 13.5 km/h (3 Bft) W-SW 0.18 h 118 W/m 2.6 C 11.6 C 21.3 km/h (4 Bft)
01.02.2008 16:00 11.0 C 56 % 1004.4 hPa 0.0 l/m 7.8 km/h (2 Bft) W-SW 0.00 h 35 W/m 2.7 C 11.0 C 13.7 km/h (3 Bft)
01.02.2008 17:00 11.3 C 52 % 1003.5 hPa 0.0 l/m 10.5 km/h (2 Bft) W-SW 0.00 h 7 W/m 1.8 C 11.3 C 17.1 km/h (3 Bft)
01.02.2008 18:00 11.8 C 48 % 1003.1 hPa 0.0 l/m 10.5 km/h (2 Bft) W-SW 0.00 h 0 W/m 1.1 C 11.8 C 17.5 km/h (3 Bft)
01.02.2008 19:00 11.2 C 51 % 1002.8 hPa 0.0 l/m 17.3 km/h (3 Bft) SW 0.00 h 0 W/m 1.4 C 11.2 C 29.9 km/h (5 Bft)
01.02.2008 20:00 10.6 C 55 % 1003.1 hPa 0.0 l/m 20.3 km/h (4 Bft) W-SW 0.00 h 0 W/m 2.0 C 10.6 C 33.2 km/h (5 Bft)
01.02.2008 21:00 10.5 C 58 % 1003.3 hPa 0.0 l/m 21.6 km/h (4 Bft) W-SW 0.00 h 0 W/m 2.6 C 10.5 C 32.7 km/h (5 Bft)
01.02.2008 22:00 8.8 C 75 % 1004.2 hPa 1.4 l/m 20.6 km/h (4 Bft) W 0.00 h 0 W/m 4.5 C 6.2 C 30.9 km/h (5 Bft)
01.02.2008 23:00 5.1 C 88 % 1006.0 hPa 1.0 l/m 20.0 km/h (4 Bft) W-NW 0.00 h 0 W/m 3.3 C 1.2 C 28.9 km/h (5 Bft)
02.02.2008 00:00 4.2 C 91 % 1006.4 hPa 1.4 l/m 17.6 km/h (3 Bft) W 0.00 h 0 W/m 2.9 C 0.4 C 25.8 km/h (4 Bft)
02.02.2008 01:00 3.2 C 91 % 1007.0 hPa 0.6 l/m 14.2 km/h (3 Bft) W 0.00 h 0 W/m 1.9 C -0.3 C 21.4 km/h (4 Bft)
02.02.2008 02:00 2.3 C 92 % 1008.1 hPa 0.0 l/m 11.2 km/h (2 Bft) W 0.00 h 0 W/m 1.1 C -0.8 C 17.2 km/h (3 Bft)
02.02.2008 03:00 2.0 C 92 % 1009.2 hPa 0.0 l/m 9.7 km/h (2 Bft) W 0.00 h 0 W/m 0.8 C -0.7 C 15.3 km/h (3 Bft)
02.02.2008 04:00 1.9 C 92 % 1010.3 hPa 0.2 l/m 4.5 km/h (1 Bft) W-SW 0.00 h 0 W/m 0.7 C 0.9 C 7.6 km/h (2 Bft)
02.02.2008 05:00 1.5 C 93 % 1011.5 hPa 0.4 l/m 1.9 km/h (1 Bft) S 0.00 h 0 W/m 0.5 C 1.5 C 4.6 km/h (1 Bft)
02.02.2008 06:00 1.0 C 94 % 1012.8 hPa 0.8 l/m 1.9 km/h (1 Bft) W-SW 0.00 h 0 W/m 0.1 C 0.9 C 4.3 km/h (1 Bft)
02.02.2008 07:00 1.1 C 96 % 1013.9 hPa 0.0 l/m 2.5 km/h (1 Bft) SW 0.00 h 0 W/m 0.5 C 0.9 C 5.1 km/h (1 Bft)
02.02.2008 08:00 1.3 C 97 % 1015.3 hPa 0.0 l/m 1.7 km/h (1 Bft) S-SW 0.00 h 15 W/m 0.8 C 1.3 C 4.1 km/h (1 Bft)
02.02.2008 09:00 1.8 C 97 % 1016.4 hPa 0.0 l/m 2.5 km/h (1 Bft) S 0.00 h 36 W/m 1.4 C 1.6 C 5.0 km/h (1 Bft)
02.02.2008 10:00 2.6 C 93 % 1017.7 hPa 0.0 l/m 10.9 km/h (2 Bft) W 0.00 h 75 W/m 1.5 C -0.4 C 17.2 km/h (3 Bft)
02.02.2008 11:00 3.0 C 86 % 1019.0 hPa 0.0 l/m 9.2 km/h (2 Bft) W 0.22 h 164 W/m 0.9 C 0.6 C 13.9 km/h (3 Bft)
02.02.2008 12:00 3.7 C 80 % 1019.5 hPa 0.2 l/m 9.3 km/h (2 Bft) W 0.65 h 274 W/m 0.6 C 1.3 C 14.6 km/h (3 Bft)
02.02.2008 13:00 4.6 C 71 % 1019.9 hPa 0.0 l/m 9.4 km/h (2 Bft) W 0.78 h 347 W/m -0.3 C 2.4 C 14.4 km/h (3 Bft)
02.02.2008 14:00 5.4 C 62 % 1020.5 hPa 0.0 l/m 9.0 km/h (2 Bft) W 0.87 h 339 W/m -1.2 C 3.4 C 13.6 km/h (3 Bft)
02.02.2008 15:00 5.3 C 59 % 1021.3 hPa 0.0 l/m 7.7 km/h (2 Bft) W 0.78 h 181 W/m -2.1 C 3.7 C 11.4 km/h (2 Bft)
02.02.2008 16:00 5.1 C 61 % 1021.9 hPa 0.0 l/m 4.3 km/h (1 Bft) W-SW 1.00 h 92 W/m -1.7 C 4.5 C 6.7 km/h (2 Bft)
02.02.2008 17:00 3.2 C 69 % 1022.6 hPa 0.0 l/m 0.3 km/h (0 Bft) W-SW 0.30 h 21 W/m -1.8 C 3.2 C 1.2 km/h (1 Bft)
02.02.2008 18:00 1.2 C 78 % 1023.4 hPa 0.0 l/m 1.0 km/h (0 Bft) O 0.00 h 0 W/m -2.1 C 1.2 C 1.9 km/h (1 Bft)
02.02.2008 19:00 -0.1 C 85 % 1024.1 hPa 0.0 l/m 4.4 km/h (1 Bft) O-SO 0.00 h 0 W/m -2.4 C -1.2 C 5.8 km/h (1 Bft)
02.02.2008 20:00 -0.9 C 88 % 1024.5 hPa 0.0 l/m 1.9 km/h (1 Bft) O-SO 0.00 h 0 W/m -2.6 C -1.3 C 2.6 km/h (1 Bft)
02.02.2008 21:00 -1.6 C 91 % 1024.5 hPa 0.0 l/m 0.8 km/h (0 Bft) O-SO 0.00 h 0 W/m -2.9 C -1.6 C 1.5 km/h (1 Bft)
02.02.2008 22:00 -1.8 C 91 % 1024.3 hPa 0.0 l/m 0.4 km/h (0 Bft) O-SO 0.00 h 0 W/m -3.1 C -1.8 C 0.9 km/h (0 Bft)
02.02.2008 23:00 -2.2 C 94 % 1024.0 hPa 0.0 l/m 0.0 km/h (0 Bft) N 0.00 h 0 W/m -3.1 C -2.2 C 0.0 km/h (0 Bft)
03.02.2008 00:00 -2.4 C 95 % 1023.6 hPa 0.0 l/m 0.1 km/h (0 Bft) O-SO 0.00 h 0 W/m -3.1 C -2.4 C 0.3 km/h (0 Bft)
03.02.2008 01:00 -2.9 C 95 % 1023.1 hPa 0.0 l/m 0.2 km/h (0 Bft) O-SO 0.00 h 0 W/m -3.6 C -2.9 C 0.7 km/h (0 Bft)
03.02.2008 02:00 -3.0 C 95 % 1022.6 hPa 0.0 l/m 0.0 km/h (0 Bft) N 0.00 h 0 W/m -3.7 C -3.0 C 0.4 km/h (0 Bft)
03.02.2008 03:00 -3.1 C 96 % 1022.0 hPa 0.0 l/m 0.0 km/h (0 Bft) N 0.00 h 0 W/m -3.7 C -3.1 C 0.3 km/h (0 Bft)
03.02.2008 04:00 -2.6 C 95 % 1021.5 hPa 0.0 l/m 0.9 km/h (0 Bft) O-SO 0.00 h 0 W/m -3.3 C -2.6 C 2.3 km/h (1 Bft)
03.02.2008 05:00 -3.3 C 95 % 1021.4 hPa 0.0 l/m 0.0 km/h (0 Bft) O-SO 0.00 h 0 W/m -4.0 C -3.3 C 0.6 km/h (0 Bft)
03.02.2008 06:00 -3.7 C 95 % 1021.0 hPa 0.0 l/m 0.3 km/h (0 Bft) O-SO 0.00 h 0 W/m -4.4 C -3.7 C 0.8 km/h (0 Bft)
03.02.2008 07:00 -3.9 C 95 % 1021.1 hPa 0.0 l/m 0.1 km/h (0 Bft) O-SO 0.00 h 5 W/m -4.6 C -3.9 C 0.3 km/h (0 Bft)
03.02.2008 08:00 -4.0 C 95 % 1021.7 hPa 0.0 l/m 0.0 km/h (0 Bft) O-SO 0.03 h 22 W/m -4.7 C -4.0 C 0.2 km/h (0 Bft)
03.02.2008 09:00 -3.4 C 95 % 1021.5 hPa 0.0 l/m 0.0 km/h (0 Bft) N 0.38 h 110 W/m -4.0 C -3.4 C 0.1 km/h (0 Bft)
03.02.2008 10:00 -2.3 C 94 % 1021.2 hPa 0.0 l/m 0.2 km/h (0 Bft) O-SO 0.18 h 98 W/m -3.2 C -2.3 C 0.7 km/h (0 Bft)
03.02.2008 11:00 -1.3 C 90 % 1020.9 hPa 0.0 l/m 1.2 km/h (1 Bft) O-SO 0.27 h 156 W/m -2.6 C -1.3 C 2.8 km/h (1 Bft)
03.02.2008 12:00 0.2 C 82 % 1019.7 hPa 0.0 l/m 2.3 km/h (1 Bft) W 0.98 h 392 W/m -2.4 C -0.0 C 4.4 km/h (1 Bft)
03.02.2008 13:00 1.2 C 78 % 1018.5 hPa 0.0 l/m 3.2 km/h (1 Bft) S-SW 1.00 h 386 W/m -2.3 C 0.9 C 6.2 km/h (2 Bft)
03.02.2008 14:00 2.2 C 74 % 1017.2 hPa 0.0 l/m 2.4 km/h (1 Bft) S 1.00 h 320 W/m -1.9 C 2.1 C 5.0 km/h (1 Bft)
03.02.2008 15:00 2.9 C 72 % 1016.1 hPa 0.0 l/m 2.8 km/h (1 Bft) S 1.00 h 216 W/m -1.6 C 2.7 C 5.9 km/h (2 Bft)
03.02.2008 16:00 2.5 C 74 % 1015.5 hPa 0.0 l/m 3.2 km/h (1 Bft) S-SO 0.67 h 87 W/m -1.7 C 2.2 C 5.9 km/h (2 Bft)
03.02.2008 17:00 0.9 C 80 % 1015.5 hPa 0.0 l/m 1.8 km/h (1 Bft) O-SO 0.00 h 12 W/m -2.2 C 0.9 C 3.3 km/h (1 Bft)
03.02.2008 18:00 -0.3 C 85 % 1015.5 hPa 0.0 l/m 1.9 km/h (1 Bft) S-SO 0.00 h 0 W/m -2.5 C -0.4 C 2.9 km/h (1 Bft)
03.02.2008 19:00 -1.1 C 88 % 1015.3 hPa 0.0 l/m 2.5 km/h (1 Bft) O-SO 0.00 h 0 W/m -2.8 C -1.5 C 3.4 km/h (1 Bft)
03.02.2008 20:00 -1.8 C 91 % 1014.5 hPa 0.0 l/m 0.4 km/h (0 Bft) O-SO 0.00 h 0 W/m -3.1 C -1.8 C 0.9 km/h (0 Bft)
03.02.2008 21:00 -2.3 C 92 % 1013.8 hPa 0.0 l/m 1.1 km/h (0 Bft) O-SO 0.00 h 0 W/m -3.4 C -2.4 C 1.9 km/h (1 Bft)
03.02.2008 22:00 -2.9 C 94 % 1013.2 hPa 0.0 l/m 1.5 km/h (1 Bft) O-SO 0.00 h 0 W/m -3.8 C -3.0 C 2.4 km/h (1 Bft)
03.02.2008 23:00 -3.3 C 95 % 1012.3 hPa 0.0 l/m 0.7 km/h (0 Bft) O-SO 0.00 h 0 W/m -4.0 C -3.4 C 1.7 km/h (1 Bft)
Min-Datum _ 03.02.08 28.01.08 01.02.08 - 28.01.08 - - - 01.02.08 03.02.08 28.01.08
_ Min-Zeit 08:22 15:31 19:00 - 00:09 - - - 06:18 23:15 00:13
Minimum _ -4.2 C 37 % 1002.6 hPa - 0.0 km/h (0 Bft) - - - -6.3 C -5.5 C 0.0 km/h (0 Bft)
Max-Datum _ 01.02.08 02.02.08 28.01.08 01.02.08 01.02.08 - 28.01.08 02.02.08 01.02.08 01.02.08 01.02.08
_ Max-Zeit 17:59 10:15 05:15 22:21 21:00 - 09:58 13:22 22:44 17:59 22:21
Maximum _ 11.9 C 98 % 1037.0 hPa 1.4 l/m 32.2 km/h
W-SW (5 Bft)
- 0.02 h 529 W/m 5.4 C 11.9 C 57.4 km/h
W (7 Bft)
Durchschnitt _ 2.1 C 81 % 1022.6 hPa #7.2 l/m 4.2 km/h (1 Bft) W #24:12 h 133 W/m -1.2 C 1.5 C 6.9 km/h (2 Bft)
© Kaiko 2008